Austin, TX (78701)

12:27 PM CST on December 03, 2016 (GMT -0600)
West End | | Change Station

Elev 564 ft 30.28 °N, 97.75 °W | Updated 12 seconds ago

Light Rain
Light Rain Mist
51.8 °F
Feels Like 51.8 °F
N
2.0
Wind Variable Wind from North
Gusts 2.5 mph

Today
High -- | Low -- °F
--% Chance of Precip.
Yesterday
High -- | Low -- °F
Precip. -- in
Pressure 29.97 in
Visibility 6.0 miles
Clouds Overcast 800 ft
Dew Point 51 °F
Humidity 96%
Rainfall 0.91 in
Snow Depth Not available.
7:11 AM 5:30 PM
Waxing Crescent, 16% visible
SPECI KATT 031822Z AUTO 36005KT 6SM -RA BR OVC008 11/09 A2997 RMK AO2 CIG 006V010 P0004 T01060094
Pressure 29.97 in
Visibility 6.0 miles
Clouds Overcast 800 ft
Dew Point 51 °F
Humidity 96%
Rainfall 0.91 in
Snow Depth Not available.
7:11 AM 5:30 PM
Waxing Crescent, 16% visible
SPECI KATT 031822Z AUTO 36005KT 6SM -RA BR OVC008 11/09 A2997 RMK AO2 CIG 006V010 P0004 T01060094

10-Day Weather Forecast

Almanac

Astronomy

Dec. 03, 2016 Rise Set
Actual Time
Civil Twilight
Nautical Twilight
Astronomical Twilight
Moon
Length of Visible Light
Length of Day
Tomorrow will be .
, % of the Moon is Illuminated

Today's Extremes

State Highs State Lows

Community

WunderPhotos

Upload Photos

1,955,457 photos uploaded!

WunderBlog® & News

Nearby

Air Quality

  Air Quality AQ Index Pollutant
Not available.

Snow Depth

Station Depth Elevation

Earthquake Activity

City Distance Mag. Time & Date
Minimum magnitude displayed is 2.5.

Coastal Water Temperatures

Place Temperature

Stations

Nearby Weather Stations

Station Location Temp. Windchill Dew Point Humidity Wind Precip. Elev Updated Type
                   

Watches & Warnings

There are currently no watches in effect.